Flugplatz Meinerzhagen (EDKZ)

Hier findest Du alle Informationen zum Flugplatz Meinerzhagen (EDKZ).

Informationen für Piloten zum Flugplatz Meinerzhagen

Hier findest Du alle relevanten Informationen, die Du als Pilot benötigst, um Meinerzhagen anzufliegen.

Flugplatz: Meinerzhagen ICAO-Code: EDKZ
Frequenz Turm: 130,600 Mhz GAFOR Gebiet: 35
Frequenz Ground: 130,600 Mhz Mogas: nein
Platzrunde: N 2400 ft Landegebühr: -
Platzhöhe: - Sunrise: 07:14 Uhr UTC
Pisten: 07/25 - 820 m x 20 m, ASPH Sunset: 15:26 Uhr UTC

Flugwetter am Flugplatz Meinerzhagen

Die METAR Information stammen aus EDDK (41.28 km entfernt).

METAR Code:
2022/10/27 05:20
EDDK 270520Z AUTO 12005KT CAVOK 13/11 Q1023 NOSIG

Temperatur: -0,1 °C Niederschlag: - Wind: 2,6 kt (max.: 4,6 kt in Böen)
Temperatur (min.): -1,5 °C Luftdruck: 1020 hPa Windrichtung: 242 °
Temperatur (max.): 1,5 °C Luftfeuchtigkeit: 95 % Bewölkung: 8/8

Flugschulen am Flugplatz Meinerzhagen

Am Flugplatz Meinerzhagen gibt es eine Flugschule.

Flugluft.de Tragschrauber

Benachbarte Flugplätze und Flugschulen

Es gibt 21 weitere Flugplätze in einem Umkreis von 50 km um den Flugplatz Meinerzhagen.

Jetzt anmelden

Passwort vergessen

Umfrage Archiv

Sendet Ihr ADS-B und/oder FLARM?

Ja
84.6 %
Nein
15.4 %
Stimmen: 254 | Diskussion
Anzeige: Roland Aircraft
Statistik Alle Mitglieder

Aktuell sind 48 Besucher online, davon 2 Mitglieder und 46 Gäste.


Mitglieder online:
heiko_ul  echt_weg 

Anzeige: ULPower Aero Engines Anzeige: EasyVFR